Time;durP1;ratioP1;P1;durP2;ratioP2;P2;SDS_P1;SDS_P2;PMS_P1;PMS_P2;Temp;Humidity;BMP_temperature;BMP_pressure;BME280_temperature;BME280_humidity;BME280_pressure;Samples;Min_cycle;Max_cycle;Signal;HPM_P1;HPM_P2
2023/10/29 00:01:19;;;;;;;5.90;1.93;;;10.90;99.90;;;11.80;100.00;96418.47;5025616;28;20468;-83
2023/10/29 00:03:51;;;;;;;12.97;1.70;;;11.00;99.90;;;11.79;100.00;96413.47;5027538;28;20466;-83
2023/10/29 00:06:20;;;;;;;7.43;1.97;;;10.90;99.90;;;11.81;100.00;96421.88;5026813;28;20517;-83
2023/10/29 00:08:51;;;;;;;3.93;1.90;;;11.00;99.90;;;11.81;100.00;96420.06;5024087;28;20505;-83
2023/10/29 00:11:21;;;;;;;2.67;1.57;;;10.90;99.90;;;11.81;100.00;96427.13;5025936;28;20486;-83
2023/10/29 00:13:52;;;;;;;6.37;1.77;;;11.00;99.90;;;11.78;100.00;96417.13;5028041;28;20450;-83
2023/10/29 00:16:22;;;;;;;3.00;1.60;;;10.90;99.90;;;11.80;100.00;96425.53;5024720;28;20465;-82
2023/10/29 00:18:53;;;;;;;4.03;2.03;;;11.00;99.90;;;11.76;100.00;96434.91;5027604;28;20512;-83
2023/10/29 00:21:21;;;;;;;9.90;2.13;;;10.90;99.90;;;11.76;100.00;96429.66;5025547;28;20458;-83
2023/10/29 00:23:51;;;;;;;3.00;1.80;;;11.00;99.90;;;11.78;100.00;96441.47;5027361;28;20462;-83
2023/10/29 00:26:20;;;;;;;1.77;1.50;;;11.00;99.90;;;11.75;100.00;96443.78;5025312;28;20488;-83
2023/10/29 00:28:50;;;;;;;1.50;1.30;;;11.00;99.90;;;11.78;100.00;96438.06;5025147;28;20501;-82
2023/10/29 00:31:20;;;;;;;15.23;1.50;;;11.00;99.90;;;11.79;100.00;96429.19;5025468;28;21020;-82
2023/10/29 00:33:50;;;;;;;6.17;2.17;;;11.10;99.90;;;11.80;100.00;96425.53;5025735;28;20545;-83
2023/10/29 00:36:20;;;;;;;9.43;2.60;;;11.10;99.90;;;11.81;100.00;96417.44;5025851;28;20469;-83
2023/10/29 00:38:51;;;;;;;3.53;1.43;;;11.10;99.90;;;11.81;100.00;96417.44;5028651;28;20517;-81
2023/10/29 00:41:21;;;;;;;4.70;1.57;;;11.20;99.90;;;11.81;100.00;96400.94;5030617;28;20832;-83
2023/10/29 00:43:51;;;;;;;3.67;1.40;;;11.10;99.90;;;11.79;100.00;96379.44;5029529;28;20960;-82
2023/10/29 00:46:21;;;;;;;2.33;1.50;;;11.20;99.90;;;11.83;100.00;96354.38;5030725;28;20523;-81
2023/10/29 00:48:52;;;;;;;4.20;1.40;;;11.20;99.90;;;11.86;100.00;96343.41;5032314;28;20493;-82
2023/10/29 00:51:23;;;;;;;3.23;1.30;;;11.20;99.90;;;11.84;100.00;96338.41;5029958;28;21054;-83
2023/10/29 00:53:52;;;;;;;5.67;1.40;;;11.20;99.90;;;11.85;100.00;96331.34;5032588;28;20458;-83
2023/10/29 00:56:22;;;;;;;4.33;1.40;;;11.20;99.90;;;11.86;100.00;96336.34;5032167;28;20964;-83
2023/10/29 00:58:52;;;;;;;2.10;1.70;;;11.10;99.90;;;11.86;100.00;96335.56;5031278;28;20558;-83
2023/10/29 01:01:21;;;;;;;7.40;1.70;;;11.10;99.90;;;11.86;100.00;96346.03;5031213;28;20468;-82
2023/10/29 01:03:52;;;;;;;4.67;1.40;;;11.20;99.90;;;11.87;100.00;96353.63;5031361;28;20490;-83
2023/10/29 01:06:23;;;;;;;6.93;1.67;;;11.20;99.90;;;11.84;100.00;96340.22;5031388;28;20535;-83
2023/10/29 01:08:55;;;;;;;7.10;1.80;;;11.30;99.90;;;11.86;100.00;96336.34;5032891;28;20983;-83
2023/10/29 01:11:24;;;;;;;2.40;1.20;;;11.20;99.90;;;11.87;100.00;96316.19;5031478;28;20886;-83
2023/10/29 01:13:55;;;;;;;3.53;1.23;;;11.20;99.90;;;11.89;100.00;96304.44;5029371;28;20918;-83
2023/10/29 01:16:27;;;;;;;3.80;1.50;;;11.20;99.90;;;11.86;100.00;96304.13;5029392;28;20531;-83
2023/10/29 01:18:58;;;;;;;2.20;1.50;;;11.10;99.90;;;11.86;100.00;96299.69;5031407;28;20861;-83
2023/10/29 01:21:30;;;;;;;2.40;1.43;;;11.10;99.90;;;11.85;100.00;96294.66;5032075;28;20765;-83
2023/10/29 01:24:02;;;;;;;4.90;1.63;;;11.10;99.90;;;11.84;100.00;96311.41;5031114;28;21362;-83
2023/10/29 01:26:31;;;;;;;1.80;1.57;;;11.10;99.90;;;11.81;100.00;96306.66;5031989;28;20465;-83
2023/10/29 01:29:01;;;;;;;2.30;1.60;;;11.00;99.90;;;11.80;100.00;96307.69;5031631;28;20490;-83
2023/10/29 01:31:32;;;;;;;3.70;1.77;;;11.00;99.90;;;11.79;100.00;96313.97;5028845;28;21277;-83
2023/10/29 01:34:03;;;;;;;4.87;1.50;;;11.00;99.90;;;11.77;100.00;96394.56;5028435;28;20548;-83
2023/10/29 01:36:35;;;;;;;1.80;1.20;;;11.00;99.90;;;11.73;100.00;96409.19;5028690;28;20457;-83
2023/10/29 01:39:07;;;;;;;8.70;1.40;;;11.00;99.90;;;11.77;100.00;96391.94;5030386;28;20470;-83
2023/10/29 01:41:38;;;;;;;2.60;1.30;;;11.20;99.90;;;11.81;100.00;96395.69;5028722;28;20467;-83
2023/10/29 01:44:09;;;;;;;2.53;1.50;;;11.20;99.90;;;11.85;100.00;96391.56;5028088;28;20460;-83
2023/10/29 01:46:40;;;;;;;6.57;1.50;;;11.30;99.90;;;11.88;100.00;96375.38;5029088;28;20467;-83
2023/10/29 01:49:10;;;;;;;11.67;1.40;;;11.40;99.90;;;11.91;100.00;96375.72;5028913;28;20494;-83
2023/10/29 01:51:42;;;;;;;2.10;1.20;;;11.40;99.90;;;11.93;100.00;96372.88;5029424;28;20465;-83
2023/10/29 01:54:12;;;;;;;1.30;1.03;;;11.40;99.90;;;11.95;100.00;96373.41;5031779;28;20588;-82
2023/10/29 01:56:41;;;;;;;2.50;1.50;;;11.40;99.90;;;11.99;100.00;96377.16;5030856;28;20506;-82
2023/10/29 01:59:15;;;;;;;3.73;1.70;;;11.40;99.90;;;12.01;100.00;96380.31;5029657;28;20463;-82
2023/10/29 02:01:44;;;;;;;4.93;1.33;;;11.40;99.90;;;12.01;100.00;96385.56;5029054;28;20539;-83
2023/10/29 02:04:15;;;;;;;6.73;1.70;;;11.50;99.90;;;12.00;100.00;96376.13;5029463;28;20465;-83
2023/10/29 02:06:46;;;;;;;7.93;1.23;;;11.50;99.90;;;12.01;100.00;96368.00;5029265;28;21543;-83
2023/10/29 02:09:16;;;;;;;2.63;1.47;;;11.50;99.90;;;12.04;100.00;96369.38;5028478;28;20502;-83
2023/10/29 02:11:48;;;;;;;2.87;1.37;;;11.50;99.90;;;12.07;100.00;96353.19;5027615;28;20862;-83
2023/10/29 02:14:19;;;;;;;2.20;1.13;;;11.50;99.90;;;12.09;100.00;96325.72;5029762;28;20561;-82
2023/10/29 02:16:49;;;;;;;6.37;1.70;;;11.50;99.90;;;12.10;100.00;96311.59;5031293;28;20465;-83
2023/10/29 02:19:20;;;;;;;6.80;2.10;;;11.40;99.90;;;12.09;100.00;96314.44;5028562;28;20470;-83
2023/10/29 02:21:55;;;;;;;1.43;1.20;;;11.40;99.90;;;12.08;100.00;96303.16;5029146;28;20458;-83
2023/10/29 02:24:24;;;;;;;3.77;1.50;;;11.50;99.90;;;12.08;100.00;96308.41;5029370;28;20461;-82
2023/10/29 02:26:53;;;;;;;2.73;1.50;;;11.50;99.90;;;12.08;100.00;96312.84;5027388;28;20524;-83
2023/10/29 02:29:22;;;;;;;3.47;1.40;;;11.50;99.90;;;12.10;100.00;96322.06;5026575;28;20490;-82
2023/10/29 02:31:53;;;;;;;4.23;1.57;;;11.50;99.90;;;12.09;100.00;96320.47;4989528;28;1149735;-83
2023/10/29 02:34:22;;;;;;;4.10;1.20;;;11.50;99.90;;;12.09;100.00;96324.91;5031245;28;20204;-82
2023/10/29 02:36:51;;;;;;;6.00;1.50;;;11.50;99.90;;;12.09;100.00;96333.56;5029674;28;20461;-83
2023/10/29 02:39:23;;;;;;;6.47;1.10;;;11.50;99.90;;;12.11;100.00;96317.63;5031752;28;20473;-83
2023/10/29 02:41:54;;;;;;;4.53;1.40;;;11.50;99.90;;;12.10;100.00;96316.81;5030925;28;20515;-83
2023/10/29 02:44:24;;;;;;;2.80;1.37;;;11.50;99.90;;;12.14;100.00;96318.97;5028776;28;20532;-83
2023/10/29 02:46:54;;;;;;;5.13;1.27;;;11.50;99.90;;;12.16;100.00;96330.78;5027832;28;20465;-83
2023/10/29 02:49:22;;;;;;;5.83;1.60;;;11.50;99.90;;;12.15;100.00;96339.66;5030202;28;20851;-83
2023/10/29 02:51:52;;;;;;;1.97;1.23;;;11.50;99.90;;;12.16;100.00;96333.41;5030631;28;20964;-83
2023/10/29 02:54:25;;;;;;;3.23;1.40;;;11.40;99.90;;;12.16;100.00;96336.03;5030227;28;20449;-83
2023/10/29 02:56:54;;;;;;;4.37;2.00;;;11.50;99.90;;;12.17;100.00;96340.25;5030355;28;20461;-83
2023/10/29 02:59:23;;;;;;;2.03;1.10;;;11.50;99.90;;;12.17;100.00;96342.88;5029294;28;20493;-83
2023/10/29 03:01:54;;;;;;;3.20;1.20;;;11.50;99.90;;;12.17;100.00;96340.25;5026831;28;20468;-83
2023/10/29 03:04:24;;;;;;;2.07;1.20;;;11.60;99.90;;;12.18;100.00;96336.59;5027770;28;20459;-83
2023/10/29 03:06:55;;;;;;;4.10;1.40;;;11.60;99.90;;;12.17;100.00;96332.38;5029243;28;20827;-82
2023/10/29 03:09:27;;;;;;;9.30;1.70;;;11.60;99.90;;;12.16;100.00;96317.69;5028963;28;20852;-82
2023/10/29 03:11:56;;;;;;;2.27;1.13;;;11.70;99.90;;;12.20;100.00;96312.75;5027827;28;20482;-83
2023/10/29 03:14:26;;;;;;;6.60;1.20;;;11.60;99.90;;;12.20;100.00;96305.69;5029141;28;20560;-83
2023/10/29 03:16:57;;;;;;;1.40;1.00;;;11.50;99.90;;;12.21;100.00;96309.13;5028068;28;20465;-83
2023/10/29 03:19:27;;;;;;;2.90;1.20;;;11.50;99.90;;;12.21;100.00;96314.34;5029081;28;20472;-83
2023/10/29 03:21:56;;;;;;;2.00;1.30;;;11.50;99.90;;;12.22;100.00;96324.59;5028727;28;20477;-83
2023/10/29 03:24:27;;;;;;;14.07;1.60;;;11.50;99.90;;;12.19;100.00;96314.59;5028026;28;20462;-83
2023/10/29 03:26:58;;;;;;;4.73;1.43;;;11.50;99.90;;;12.22;100.00;96321.19;5027868;28;20468;-83
2023/10/29 03:29:28;;;;;;;3.23;1.13;;;11.50;99.90;;;12.21;100.00;96328.25;5030071;28;20956;-83
2023/10/29 03:31:58;;;;;;;3.13;1.33;;;11.50;99.90;;;12.21;100.00;96328.25;5029610;28;20473;-82
2023/10/29 03:34:28;;;;;;;3.30;1.50;;;11.50;99.90;;;12.20;100.00;96318.00;5027967;28;20469;-82
2023/10/29 03:36:58;;;;;;;6.53;1.37;;;11.60;99.90;;;12.21;100.00;96323.00;5030412;28;20462;-82
2023/10/29 03:39:30;;;;;;;7.53;1.37;;;11.60;99.90;;;12.22;100.00;96331.69;5030332;28;21198;-82
2023/10/29 03:42:00;;;;;;;1.87;1.30;;;11.60;99.90;;;12.22;100.00;96321.97;5030181;28;20540;-83
2023/10/29 03:44:30;;;;;;;1.30;1.20;;;11.60;99.90;;;12.18;100.00;96326.13;5029037;28;20490;-83
2023/10/29 03:46:58;;;;;;;2.60;0.90;;;11.70;99.90;;;12.21;100.00;96317.78;5030248;28;20540;-83
2023/10/29 03:49:28;;;;;;;2.07;1.43;;;11.70;99.90;;;12.21;100.00;96328.25;5030719;28;20473;-83
2023/10/29 03:51:59;;;;;;;4.10;1.57;;;11.60;99.90;;;12.21;100.00;96327.47;5023014;28;20565;-82
2023/10/29 03:54:30;;;;;;;3.70;1.50;;;11.60;99.90;;;12.19;100.00;96335.53;5026306;28;21150;-83
2023/10/29 03:57:00;;;;;;;3.37;1.37;;;11.70;99.90;;;12.20;100.00;96352.88;5027486;28;20462;-81
2023/10/29 03:59:30;;;;;;;3.67;1.10;;;11.60;99.90;;;12.20;100.00;96345.00;5025383;28;20465;-83
2023/10/29 04:02:01;;;;;;;8.33;1.60;;;11.70;99.90;;;12.21;100.00;96351.03;5023605;28;20545;-83
2023/10/29 04:04:33;;;;;;;6.40;1.37;;;11.70;99.90;;;12.21;100.00;96351.84;5025037;28;20467;-82
2023/10/29 04:07:03;;;;;;;6.40;1.63;;;11.70;99.90;;;12.25;100.00;96352.94;5022030;28;20480;-83
2023/10/29 04:09:37;;;;;;;2.03;1.43;;;11.70;99.90;;;12.24;100.00;96346.13;5019334;28;21345;-83
2023/10/29 04:12:08;;;;;;;2.80;2.53;;;11.70;99.90;;;12.23;100.00;96356.81;5023821;28;20965;-80
2023/10/29 04:14:42;;;;;;;4.10;2.50;;;11.80;99.90;;;12.26;100.00;96357.16;5023943;28;20540;-83
2023/10/29 04:17:13;;;;;;;3.47;2.23;;;11.80;99.90;;;12.24;100.00;96353.97;5026400;28;20554;-83
2023/10/29 04:19:43;;;;;;;5.20;1.77;;;11.80;99.90;;;12.27;100.00;96358.75;5026410;28;20469;-83
2023/10/29 04:22:13;;;;;;;2.53;1.53;;;11.70;99.90;;;12.28;100.00;96359.53;5028012;28;20471;-84
2023/10/29 04:24:44;;;;;;;4.03;1.20;;;11.80;99.90;;;12.30;100.00;96373.19;5028165;28;20518;-80
2023/10/29 04:27:15;;;;;;;3.90;1.23;;;11.80;99.90;;;12.33;100.00;96378.75;5026296;28;20535;-80
2023/10/29 04:29:46;;;;;;;1.47;1.20;;;11.80;99.90;;;12.32;100.00;96371.91;5027962;28;20469;-79
2023/10/29 04:32:16;;;;;;;6.20;1.60;;;11.80;99.90;;;12.31;100.00;96375.59;5027585;28;20522;-79
2023/10/29 04:34:46;;;;;;;1.17;1.03;;;11.80;99.90;;;12.32;100.00;96377.16;5028263;28;20457;-80
2023/10/29 04:37:17;;;;;;;1.70;1.30;;;11.80;99.90;;;12.33;100.00;96381.38;5026999;28;20983;-80
2023/10/29 04:39:50;;;;;;;4.40;1.00;;;11.90;99.90;;;12.36;100.00;96377.47;5026899;28;20548;-79
2023/10/29 04:42:21;;;;;;;1.73;1.17;;;11.80;99.90;;;12.37;100.00;96379.88;5026611;28;20870;-79
2023/10/29 04:44:53;;;;;;;5.77;1.70;;;11.80;99.90;;;12.36;100.00;96388.75;5026460;28;20450;-79
2023/10/29 04:47:23;;;;;;;5.37;1.40;;;11.80;99.90;;;12.36;100.00;96388.75;5023561;28;20555;-80
2023/10/29 04:49:53;;;;;;;3.50;1.30;;;11.80;99.90;;;12.38;100.00;96401.63;5022691;28;20471;-80
2023/10/29 04:52:24;;;;;;;6.13;1.70;;;11.80;99.90;;;12.39;100.00;96396.13;5025954;28;20540;-80
2023/10/29 04:54:55;;;;;;;2.27;1.53;;;11.90;99.90;;;12.39;100.00;96393.50;5025743;28;20481;-78
2023/10/29 04:57:24;;;;;;;3.23;1.30;;;11.80;99.90;;;12.37;100.00;96397.41;5024031;28;20509;-79
2023/10/29 04:59:55;;;;;;;1.97;1.40;;;11.90;99.90;;;12.36;100.00;96393.19;5022331;28;20531;-79
2023/10/29 05:02:25;;;;;;;8.10;2.03;;;11.80;99.90;;;12.37;100.00;96400.84;5025000;28;20498;-80
2023/10/29 05:04:55;;;;;;;7.00;1.43;;;11.80;99.90;;;12.39;100.00;96404.00;5026706;28;20480;-79
2023/10/29 05:07:24;;;;;;;5.60;1.40;;;11.80;99.90;;;12.39;100.00;96398.75;5022452;28;20868;-80
2023/10/29 05:09:56;;;;;;;5.23;1.60;;;11.80;99.90;;;12.36;100.00;96408.91;5023440;28;20481;-79
2023/10/29 05:12:26;;;;;;;3.03;1.30;;;11.90;99.90;;;12.37;100.00;96405.28;5022297;28;20468;-80
2023/10/29 05:14:57;;;;;;;2.93;1.57;;;11.80;99.90;;;12.37;100.00;96408.69;5023364;28;20460;-79
2023/10/29 05:17:28;;;;;;;1.80;1.10;;;11.90;99.90;;;12.37;100.00;96400.84;5024003;28;21199;-79
2023/10/29 05:19:59;;;;;;;236.13;125.40;;;11.90;99.90;;;12.37;100.00;96400.84;5022229;28;20481;-77
2023/10/29 05:22:31;;;;;;;9.90;5.70;;;11.90;99.90;;;12.38;100.00;96401.63;5024876;28;20473;-80
2023/10/29 05:25:06;;;;;;;3.60;1.60;;;11.80;99.90;;;12.39;100.00;96406.63;5026470;28;20454;-79
2023/10/29 05:27:39;;;;;;;2.20;1.60;;;11.90;99.90;;;12.35;100.00;96391.63;5027999;28;22308;-80
2023/10/29 05:30:12;;;;;;;1.43;1.10;;;11.90;99.90;;;12.39;100.00;96387.50;5024976;28;20461;-80
2023/10/29 05:32:43;;;;;;;1.70;1.40;;;11.90;99.90;;;12.40;100.00;96376.75;5029915;28;20473;-80
2023/10/29 05:35:12;;;;;;;6.30;1.20;;;11.80;99.90;;;12.41;100.00;96344.28;5026322;28;20491;-79
2023/10/29 05:37:45;;;;;;;6.77;2.43;;;11.90;99.90;;;12.39;100.00;96264.31;5030450;28;20830;-79
2023/10/29 05:40:16;;;;;;;3.73;1.70;;;11.90;99.90;;;12.40;100.00;96252.75;5023601;28;20473;-79
2023/10/29 05:42:47;;;;;;;1.70;1.30;;;11.80;99.90;;;12.39;100.00;96277.41;5025681;28;20477;-78
2023/10/29 05:45:17;;;;;;;2.50;1.13;;;11.80;99.90;;;12.36;100.00;96275.25;5025582;28;20462;-80
2023/10/29 05:47:47;;;;;;;2.10;1.23;;;11.90;99.90;;;12.36;100.00;96283.91;5018814;28;20470;-80
2023/10/29 05:50:18;;;;;;;1.70;1.30;;;11.90;99.90;;;12.38;100.00;96310.69;5027526;28;20584;-80
2023/10/29 05:52:48;;;;;;;3.93;1.50;;;11.90;99.90;;;12.40;100.00;96326.94;5027723;28;20472;-79
2023/10/29 05:55:22;;;;;;;2.03;1.10;;;11.80;99.90;;;12.38;100.00;96331.66;5027755;28;20553;-82
2023/10/29 05:57:52;;;;;;;1.40;1.20;;;11.90;99.90;;;12.39;100.00;96341.09;5029044;28;21067;-79
2023/10/29 06:00:22;;;;;;;3.87;1.50;;;11.90;99.90;;;12.40;100.00;96334.03;5027311;28;20469;-79
2023/10/29 06:02:53;;;;;;;3.40;1.40;;;11.90;99.90;;;12.42;100.00;96345.88;5026718;28;20961;-79
2023/10/29 06:05:24;;;;;;;2.23;1.07;;;11.80;99.90;;;12.42;100.00;96350.31;5029890;28;20490;-80
2023/10/29 06:07:58;;;;;;;2.07;1.23;;;11.90;99.90;;;12.43;100.00;96346.63;5029107;28;20465;-80
2023/10/29 06:10:28;;;;;;;1.00;0.90;;;11.90;99.90;;;12.44;100.00;96349.03;5027598;28;20497;-81
2023/10/29 06:12:59;;;;;;;10.73;1.20;;;12.00;99.90;;;12.44;100.00;96343.78;5028603;28;21449;-81
2023/10/29 06:15:29;;;;;;;2.57;1.30;;;12.00;99.90;;;12.45;100.00;96345.38;5028456;28;20550;-81
2023/10/29 06:18:03;;;;;;;1.00;0.90;;;12.00;99.90;;;12.49;100.00;96359.59;5029734;28;20494;-81
2023/10/29 06:20:34;;;;;;;1.30;1.10;;;12.00;99.90;;;12.49;100.00;96357.00;5027952;28;21896;-79
2023/10/29 06:23:04;;;;;;;1.37;0.97;;;12.00;99.90;;;12.52;100.00;96367.00;5028325;28;20955;-80
2023/10/29 06:25:35;;;;;;;2.60;1.10;;;12.00;99.90;;;12.51;100.00;96351.50;5026740;28;20840;-80
2023/10/29 06:28:07;;;;;;;1.60;1.00;;;12.00;99.90;;;12.52;100.00;96346.00;5027727;28;20960;-80
2023/10/29 06:30:37;;;;;;;1.03;0.93;;;12.00;99.90;;;12.55;100.00;96353.41;5026454;28;20466;-81
2023/10/29 06:33:06;;;;;;;1.20;0.90;;;12.10;99.90;;;12.55;100.00;96376.19;5026445;28;20572;-80
2023/10/29 06:35:36;;;;;;;8.30;3.90;;;12.00;99.90;;;12.57;100.00;96353.94;5022578;28;21008;-80
2023/10/29 06:38:06;;;;;;;2.80;1.57;;;12.10;99.90;;;12.57;100.00;96319.06;5029372;28;20608;-79
2023/10/29 06:40:37;;;;;;;3.23;1.40;;;12.10;99.90;;;12.57;100.00;96304.13;5024284;28;20985;-79
2023/10/29 06:43:09;;;;;;;1.60;1.30;;;12.10;99.90;;;12.58;100.00;96321.44;5025316;28;21051;-80
2023/10/29 06:45:40;;;;;;;1.63;1.13;;;12.10;99.90;;;12.58;100.00;96308.34;5026935;28;20469;-79
2023/10/29 06:48:11;;;;;;;1.90;1.40;;;12.20;99.90;;;12.59;100.00;96283.72;5024384;28;20458;-80
2023/10/29 06:50:55;;;;;;;2.17;1.20;;;12.10;99.90;;;12.61;100.00;96309.66;5022884;28;20493;-80
2023/10/29 06:53:25;;;;;;;1.50;1.13;;;12.10;99.90;;;12.64;100.00;96327.53;5027666;28;20466;-79
2023/10/29 06:55:56;;;;;;;3.10;1.30;;;12.10;99.90;;;12.64;100.00;96332.78;5024945;28;20457;-80
2023/10/29 06:58:26;;;;;;;2.00;1.23;;;12.20;99.90;;;12.67;100.00;96331.53;5027350;28;20466;-80
2023/10/29 07:00:55;;;;;;;4.03;1.20;;;12.20;99.90;;;12.66;100.00;96346.47;5018484;28;21201;-80
2023/10/29 07:03:28;;;;;;;2.53;1.27;;;12.20;99.90;;;12.68;100.00;96323.41;5029465;28;20472;-79
2023/10/29 07:06:06;;;;;;;2.83;1.37;;;12.30;99.90;;;12.70;100.00;96352.03;5027522;28;20484;-80
2023/10/29 07:08:37;;;;;;;4.40;1.30;;;12.30;99.90;;;12.71;100.00;96345.72;5030157;28;20464;-79
2023/10/29 07:11:09;;;;;;;2.33;1.20;;;12.30;99.90;;;12.73;100.00;96357.56;5028130;28;20860;-80
2023/10/29 07:13:41;;;;;;;1.57;1.27;;;12.30;99.90;;;12.76;100.00;96351.03;5029208;28;20454;-80
2023/10/29 07:16:12;;;;;;;2.40;1.20;;;12.30;99.90;;;12.78;100.00;96348.97;5022925;28;20594;-79
2023/10/29 07:18:42;;;;;;;1.30;1.20;;;12.30;99.90;;;12.82;100.00;96342.19;5024708;28;20842;-80
2023/10/29 07:21:11;;;;;;;2.43;1.70;;;12.30;99.90;;;12.81;100.00;96301.25;5027052;28;20550;-79
2023/10/29 07:23:43;;;;;;;2.33;1.30;;;12.30;99.90;;;12.83;100.00;96272.97;5024652;28;20557;-81
2023/10/29 07:26:14;;;;;;;4.10;1.30;;;12.30;99.90;;;12.84;100.00;96285.06;5024826;28;20469;-80
2023/10/29 07:28:44;;;;;;;30.10;14.90;;;12.40;99.90;;;12.85;100.00;96284.78;5023623;28;20473;-82
2023/10/29 07:31:15;;;;;;;4.07;1.93;;;12.40;99.90;;;12.88;100.00;96304.50;5025883;28;20478;-81
2023/10/29 07:33:49;;;;;;;1.87;1.33;;;12.40;99.90;;;12.89;100.00;96298.22;5023849;28;20474;-80
2023/10/29 07:36:20;;;;;;;1.87;1.27;;;12.50;99.90;;;12.93;100.00;96279.13;5025070;28;20490;-81
2023/10/29 07:38:49;;;;;;;5.93;1.50;;;12.50;99.90;;;12.97;100.00;96300.41;5020491;28;20449;-80
2023/10/29 07:41:22;;;;;;;176.10;96.10;;;12.50;99.90;;;12.99;100.00;96286.00;5026286;28;20469;-82
2023/10/29 07:43:52;;;;;;;2.93;1.80;;;12.50;99.90;;;13.02;100.00;96324.09;5025363;28;20451;-79
2023/10/29 07:46:21;;;;;;;4.87;2.00;;;12.50;99.90;;;13.01;100.00;96354.00;5029304;28;20458;-80
2023/10/29 07:48:50;;;;;;;1.97;1.20;;;12.60;99.90;;;13.04;100.00;96379.75;5028142;28;20466;-79
2023/10/29 07:51:22;;;;;;;2.33;1.60;;;12.60;99.90;;;13.06;100.00;96388.16;5027356;28;20465;-80
2023/10/29 07:53:53;;;;;;;2.73;1.20;;;12.60;99.90;;;13.10;100.00;96394.56;5026302;28;20466;-79
2023/10/29 07:56:23;;;;;;;2.50;1.30;;;12.60;99.90;;;13.10;100.00;96386.69;5027934;28;20477;-80
2023/10/29 07:58:53;;;;;;;2.50;1.10;;;12.70;99.90;;;13.14;100.00;96382.53;5026714;28;20971;-79
2023/10/29 08:01:23;;;;;;;1.40;1.30;;;12.60;99.90;;;13.14;100.00;96372.03;5024419;28;20453;-79
2023/10/29 08:03:55;;;;;;;2.27;1.37;;;12.70;99.90;;;13.16;100.00;96364.69;5025736;28;20467;-80
2023/10/29 08:06:26;;;;;;;4.00;1.37;;;12.70;99.90;;;13.21;100.00;96366.59;5028351;28;20856;-80
2023/10/29 08:08:55;;;;;;;2.30;1.27;;;12.70;99.90;;;13.19;100.00;96379.19;5024083;28;20466;-79
2023/10/29 08:11:26;;;;;;;5.70;2.00;;;12.80;99.90;;;13.20;100.00;96392.03;5025299;28;20491;-79
2023/10/29 08:13:56;;;;;;;2.57;1.53;;;12.80;99.90;;;13.24;100.00;96398.41;5027342;28;20490;-80
2023/10/29 08:16:28;;;;;;;2.03;1.30;;;12.80;99.90;;;13.28;100.00;96410.00;5026041;28;20561;-80
2023/10/29 08:18:58;;;;;;;2.27;1.20;;;12.70;99.90;;;13.28;100.00;96410.00;5022738;28;20454;-80
2023/10/29 08:21:28;;;;;;;1.87;1.20;;;12.70;99.90;;;13.27;100.00;96400.53;5026791;28;20888;-80
2023/10/29 08:23:57;;;;;;;12.03;6.93;;;12.80;99.90;;;13.28;100.00;96396.09;5025588;28;20469;-77
2023/10/29 08:26:29;;;;;;;5.80;2.03;;;12.80;99.90;;;13.29;100.00;96387.97;5025473;28;20466;-79
2023/10/29 08:28:59;;;;;;;1.90;1.50;;;12.80;99.90;;;13.30;100.00;96396.63;5025278;28;20561;-80
2023/10/29 08:31:29;;;;;;;1.97;1.20;;;12.80;99.90;;;13.29;100.00;96397.69;5024889;28;20984;-80
2023/10/29 08:33:59;;;;;;;2.73;1.43;;;12.90;99.90;;;13.33;100.00;96412.69;5027102;28;20524;-79
2023/10/29 08:36:28;;;;;;;2.23;1.10;;;12.80;99.90;;;13.30;100.00;96421.03;5025093;28;20507;-80
2023/10/29 08:38:58;;;;;;;1.30;1.10;;;12.90;99.90;;;13.33;100.00;96425.81;5023884;28;20462;-80
2023/10/29 08:41:29;;;;;;;2.93;1.20;;;12.80;99.90;;;13.35;100.00;96429.00;5023453;28;20970;-80
2023/10/29 08:43:59;;;;;;;2.47;1.63;;;12.90;99.90;;;13.34;100.00;96432.66;5024704;28;20466;-79
2023/10/29 08:46:28;;;;;;;3.30;1.20;;;12.80;99.90;;;13.34;100.00;96427.41;5026723;28;20764;-80
2023/10/29 08:48:58;;;;;;;2.00;1.20;;;12.90;99.90;;;13.35;100.00;96434.25;5025597;28;20469;-79
2023/10/29 08:51:28;;;;;;;2.70;1.33;;;12.80;99.90;;;13.36;100.00;96425.31;5024658;28;20472;-79
2023/10/29 08:53:59;;;;;;;2.30;1.43;;;12.80;99.90;;;13.38;100.00;96418.00;5025888;28;20521;-79
2023/10/29 08:56:30;;;;;;;3.20;1.73;;;12.90;99.90;;;13.39;100.00;96422.22;5025209;28;20560;-77
2023/10/29 08:59:00;;;;;;;5.57;1.73;;;12.90;99.90;;;13.38;100.00;96431.13;5025745;28;20454;-79
2023/10/29 09:01:31;;;;;;;3.00;1.47;;;12.80;99.90;;;13.40;100.00;96434.28;5028516;28;20461;-79
2023/10/29 09:04:03;;;;;;;2.17;1.20;;;12.90;99.90;;;13.44;100.00;96427.53;5031741;28;20591;-79
2023/10/29 09:06:34;;;;;;;10.03;5.80;;;13.00;99.90;;;13.49;100.00;96440.72;5029436;28;20454;-76
2023/10/29 09:09:03;;;;;;;14.33;2.30;;;13.00;99.90;;;13.53;100.00;96447.09;5027029;28;20978;-80
2023/10/29 09:11:36;;;;;;;9.90;1.50;;;13.00;99.90;;;13.55;100.00;96454.69;5029268;28;20461;-79
2023/10/29 09:14:07;;;;;;;2.20;1.47;;;13.10;99.90;;;13.61;100.00;96458.97;5031926;28;20481;-79
2023/10/29 09:16:36;;;;;;;2.53;1.50;;;13.10;99.90;;;13.63;100.00;96466.63;5027646;28;20535;-79
2023/10/29 09:19:06;;;;;;;4.87;1.30;;;13.10;99.90;;;13.66;100.00;96466.13;5031755;28;20481;-79
2023/10/29 09:21:36;;;;;;;2.07;1.30;;;13.20;99.90;;;13.70;100.00;96452.25;5031043;28;20500;-79
2023/10/29 09:24:08;;;;;;;6.00;1.40;;;13.20;99.90;;;13.77;100.00;96446.81;5032064;28;20465;-79
2023/10/29 09:26:40;;;;;;;2.70;1.40;;;13.20;99.90;;;13.81;100.00;96448.72;5031798;28;20566;-79
2023/10/29 09:29:11;;;;;;;3.40;1.30;;;13.30;99.90;;;13.85;100.00;96449.00;5033740;28;20458;-80
2023/10/29 09:31:40;;;;;;;3.13;1.20;;;13.40;99.90;;;13.82;100.00;96442.41;5029954;28;20956;-78
2023/10/29 09:34:10;;;;;;;4.03;1.30;;;13.30;99.90;;;13.83;100.00;96438.72;5030474;28;20528;-79
2023/10/29 09:36:39;;;;;;;4.40;1.47;;;13.30;99.90;;;13.85;100.00;96438.50;5032564;28;20820;-79
2023/10/29 09:39:10;;;;;;;2.03;1.30;;;13.30;99.90;;;13.89;100.00;96439.56;5032466;28;20460;-80
2023/10/29 09:41:44;;;;;;;2.00;1.30;;;13.40;99.90;;;13.92;100.00;96454.84;5030175;28;20967;-79
2023/10/29 09:44:18;;;;;;;1.60;1.10;;;13.40;99.90;;;13.93;100.00;96462.50;5030483;28;20473;-78
2023/10/29 09:46:56;;;;;;;2.33;1.37;;;13.40;99.90;;;13.93;100.00;96457.22;5029982;28;20567;-79
2023/10/29 09:49:25;;;;;;;2.20;1.30;;;13.40;99.90;;;13.96;100.00;96469.06;5028331;28;20465;-79
2023/10/29 09:51:56;;;;;;;1.50;1.10;;;13.40;99.90;;;13.98;100.00;96461.75;5030061;28;20489;-79
2023/10/29 09:54:28;;;;;;;2.23;1.30;;;13.40;99.90;;;14.01;100.00;96474.41;5028968;28;21615;-79
2023/10/29 09:56:59;;;;;;;3.23;1.37;;;13.40;99.90;;;13.94;100.00;96469.34;5029621;28;20463;-78
2023/10/29 09:59:29;;;;;;;2.03;1.30;;;13.40;99.90;;;13.89;100.00;96465.84;5028043;28;20470;-79
2023/10/29 10:01:58;;;;;;;2.90;1.00;;;13.30;99.90;;;13.91;100.00;96450.66;5029049;28;20520;-79
2023/10/29 10:04:29;;;;;;;1.70;1.20;;;13.20;99.90;;;13.92;100.00;96433.81;5029580;28;20450;-78
2023/10/29 10:07:00;;;;;;;2.87;1.43;;;13.30;99.90;;;13.89;100.00;96440.38;5030306;28;20458;-80
2023/10/29 10:09:53;;;;;;;1.20;1.07;;;13.30;99.90;;;13.89;100.00;96452.72;5029070;28;21399;-79
2023/10/29 10:12:25;;;;;;;1.87;1.10;;;13.20;99.90;;;13.89;100.00;96461.38;5031716;28;20452;-79
2023/10/29 10:15:04;;;;;;;1.80;1.10;;;13.40;99.90;;;13.90;100.00;96451.69;5030754;28;20596;-79
2023/10/29 10:17:34;;;;;;;2.23;1.07;;;13.30;99.90;;;13.91;100.00;96448.00;5030084;28;20466;-79
2023/10/29 10:20:10;;;;;;;4.87;1.40;;;13.30;99.90;;;13.95;100.00;96460.41;5033622;28;20532;-79
2023/10/29 10:22:43;;;;;;;3.90;1.47;;;13.30;99.90;;;13.95;100.00;96464.88;5030872;28;20548;-79
2023/10/29 10:25:24;;;;;;;1.50;1.00;;;13.40;99.90;;;13.96;100.00;96446.22;5033467;28;20817;-79
2023/10/29 10:27:56;;;;;;;1.57;1.10;;;13.50;99.90;;;14.00;100.00;96446.53;5030069;28;20461;-79